createdAt,value
2023-05-19T00:02:33.921Z,8.82
2023-05-19T00:07:33.525Z,10.13
2023-05-19T00:12:34.875Z,9.30
2023-05-19T00:17:34.795Z,9.30
2023-05-19T00:22:37.104Z,9.05
2023-05-19T00:27:36.835Z,10.05
2023-05-19T00:32:38.778Z,9.38
2023-05-19T00:37:39.818Z,10.25
2023-05-19T00:42:44.889Z,8.98
2023-05-19T00:47:42.588Z,8.98
2023-05-19T00:52:42.362Z,9.07
2023-05-19T00:57:44.215Z,9.25
2023-05-19T01:02:43.635Z,8.23
2023-05-19T01:07:46.817Z,8.90
2023-05-19T01:12:48.585Z,9.63
2023-05-19T01:17:51.450Z,9.43
2023-05-19T01:22:50.618Z,9.73
2023-05-19T01:27:52.280Z,9.32
2023-05-19T01:32:55.268Z,9.65
2023-05-19T01:37:55.940Z,9.32
2023-05-19T01:42:58.123Z,10.00
2023-05-19T01:47:58.521Z,9.60
2023-05-19T01:52:58.251Z,9.73
2023-05-19T01:57:58.501Z,10.02
2023-05-19T02:03:16.872Z,9.40
2023-05-19T02:08:20.643Z,9.38
2023-05-19T02:13:23.723Z,9.15
2023-05-19T02:18:28.440Z,9.53
2023-05-19T02:23:27.187Z,10.05
2023-05-19T02:28:28.610Z,9.63
2023-05-19T02:33:28.274Z,10.02
2023-05-19T02:38:27.065Z,10.02
2023-05-19T02:43:26.004Z,9.88
2023-05-19T02:48:32.721Z,10.52
2023-05-19T02:53:43.646Z,9.95
2023-05-19T02:58:43.344Z,10.75
2023-05-19T03:03:46.344Z,10.10
2023-05-19T03:08:45.461Z,10.27
2023-05-19T03:13:43.931Z,10.77
2023-05-19T03:18:45.060Z,10.25
2023-05-19T03:23:47.889Z,10.73
2023-05-19T03:28:45.783Z,10.13
2023-05-19T03:33:47.972Z,10.30
2023-05-19T03:38:49.284Z,9.87
2023-05-19T03:43:50.803Z,11.43
2023-05-19T03:48:51.055Z,10.90
2023-05-19T03:53:58.699Z,10.95
2023-05-19T03:58:57.566Z,11.13
2023-05-19T04:03:55.351Z,10.85
2023-05-19T04:08:54.875Z,10.18
2023-05-19T04:13:56.080Z,10.60
2023-05-19T04:18:58.650Z,10.52
2023-05-19T04:24:02.901Z,9.57
2023-05-19T04:29:14.784Z,10.48
2023-05-19T04:34:15.352Z,10.15
2023-05-19T04:39:16.646Z,10.80
2023-05-19T04:44:18.633Z,11.68
2023-05-19T04:49:19.964Z,11.03
2023-05-19T04:54:21.493Z,11.23
2023-05-19T04:59:18.819Z,11.48
2023-05-19T05:04:22.378Z,11.18
2023-05-19T05:09:24.090Z,11.73
2023-05-19T05:14:25.085Z,10.27
2023-05-19T05:19:26.416Z,10.20
2023-05-19T05:24:29.585Z,11.60
2023-05-19T05:29:47.628Z,10.45
2023-05-19T05:34:50.914Z,11.13
2023-05-19T05:39:52.460Z,10.33
2023-05-19T05:44:52.710Z,10.55
2023-05-19T05:49:57.738Z,11.52
2023-05-19T05:54:59.742Z,11.43
2023-05-19T06:00:02.724Z,11.00
2023-05-19T06:05:06.496Z,10.73
2023-05-19T06:10:09.016Z,11.52
2023-05-19T06:15:08.278Z,11.10
2023-05-19T06:20:37.408Z,11.98
2023-05-19T06:25:41.121Z,12.15
2023-05-19T06:30:43.248Z,12.07
2023-05-19T06:36:04.884Z,11.80
2023-05-19T06:41:03.457Z,11.32
2023-05-19T06:46:36.457Z,13.70
2023-05-19T06:51:40.767Z,12.45
2023-05-19T06:56:45.511Z,13.75
2023-05-19T07:01:48.114Z,13.63
2023-05-19T07:06:53.470Z,13.80
2023-05-19T07:11:54.405Z,14.43
2023-05-19T07:16:53.204Z,14.55
2023-05-19T07:21:53.625Z,14.98
2023-05-19T07:26:55.691Z,14.45
2023-05-19T07:32:04.820Z,15.27
2023-05-19T07:37:07.625Z,15.43
2023-05-19T07:42:19.001Z,15.83
2023-05-19T07:47:19.460Z,15.77
2023-05-19T07:52:25.644Z,14.00
2023-05-19T07:57:25.385Z,16.10
2023-05-19T08:02:24.437Z,15.75
2023-05-19T08:07:26.395Z,14.50
2023-05-19T08:12:39.162Z,15.27
2023-05-19T08:17:39.024Z,14.73
2023-05-19T08:22:40.587Z,14.10
2023-05-19T08:27:43.460Z,15.20
2023-05-19T08:32:45.098Z,15.52
2023-05-19T08:37:57.218Z,15.40
2023-05-19T08:43:04.136Z,13.25
2023-05-19T08:48:08.519Z,13.43
2023-05-19T08:53:34.242Z,12.65
2023-05-19T08:58:34.958Z,13.18
2023-05-19T09:03:42.565Z,14.23
2023-05-19T09:08:47.366Z,13.68
2023-05-19T09:13:46.395Z,12.68
2023-05-19T09:19:05.924Z,13.52
2023-05-19T09:24:20.870Z,12.10
2023-05-19T09:29:29.092Z,12.60
2023-05-19T09:34:32.629Z,9.70
2023-05-19T09:39:29.996Z,12.10
2023-05-19T09:44:33.444Z,11.75
2023-05-19T09:49:35.198Z,11.27
2023-05-19T09:54:37.500Z,10.98
2023-05-19T09:59:39.859Z,10.52
2023-05-19T10:04:42.607Z,11.25
2023-05-19T10:09:45.165Z,10.30
2023-05-19T10:14:45.023Z,10.27
2023-05-19T10:19:44.574Z,9.68
2023-05-19T10:24:43.650Z,9.63
2023-05-19T10:29:52.713Z,9.95
2023-05-19T10:35:16.218Z,8.55
2023-05-19T10:40:22.226Z,9.30
2023-05-19T10:45:32.253Z,9.40
2023-05-19T10:50:47.749Z,9.15
2023-05-19T10:55:56.507Z,13.43
2023-05-19T11:01:00.700Z,9.15
2023-05-19T11:06:27.040Z,9.77
2023-05-19T11:11:27.794Z,9.70
2023-05-19T11:16:36.378Z,10.68
2023-05-19T11:21:49.339Z,9.68
2023-05-19T11:26:48.353Z,10.32
2023-05-19T11:31:50.003Z,8.38
2023-05-19T11:36:53.328Z,9.05
2023-05-19T11:41:52.270Z,8.57
2023-05-19T11:46:56.063Z,10.68
2023-05-19T11:52:21.809Z,7.22
2023-05-19T11:57:22.971Z,9.32
2023-05-19T12:02:28.085Z,9.40
2023-05-19T12:07:28.835Z,7.40
2023-05-19T12:12:30.306Z,6.05
2023-05-19T12:17:32.739Z,8.65
2023-05-19T12:22:34.412Z,6.57
2023-05-19T12:27:38.322Z,7.32
2023-05-19T12:32:36.734Z,6.07
2023-05-19T12:37:41.676Z,5.80
2023-05-19T12:42:44.917Z,7.28
2023-05-19T12:47:47.773Z,5.25
2023-05-19T12:52:53.264Z,5.15
2023-05-19T12:57:57.506Z,5.45
2023-05-19T13:03:02.865Z,5.68
2023-05-19T13:08:12.028Z,7.30
2023-05-19T13:13:12.579Z,7.15
2023-05-19T13:18:10.659Z,6.80
2023-05-19T13:23:10.192Z,5.47
2023-05-19T13:28:11.726Z,5.68
2023-05-19T13:33:15.764Z,7.13
2023-05-19T13:38:23.717Z,5.28
2023-05-19T13:43:22.610Z,6.18
2023-05-19T13:48:46.143Z,6.13
2023-05-19T13:53:47.739Z,7.38
2023-05-19T13:58:51.093Z,5.93
2023-05-19T14:03:56.256Z,6.28
2023-05-19T14:09:08.501Z,7.28
2023-05-19T14:14:18.850Z,6.80
2023-05-19T14:19:26.578Z,6.63
2023-05-19T14:24:27.708Z,6.25
2023-05-19T14:29:31.723Z,6.63
2023-05-19T14:34:40.770Z,6.35
2023-05-19T14:39:46.178Z,5.75
2023-05-19T14:45:06.097Z,5.60
2023-05-19T14:50:29.343Z,7.32
2023-05-19T14:56:37.418Z,6.45
2023-05-19T15:01:49.451Z,7.28
2023-05-19T15:07:20.318Z,6.10
2023-05-19T15:12:24.859Z,5.95
2023-05-19T15:17:41.576Z,7.25
2023-05-19T15:22:45.984Z,6.20
2023-05-19T15:27:46.846Z,6.95
2023-05-19T15:32:44.845Z,6.65
2023-05-19T15:37:45.572Z,5.80
2023-05-19T15:42:47.932Z,6.15
2023-05-19T15:47:49.134Z,6.55
2023-05-19T15:52:51.380Z,3.72
2023-05-19T15:57:52.043Z,4.22
2023-05-19T16:02:53.900Z,6.32
2023-05-19T16:07:55.695Z,5.18
2023-05-19T16:13:03.936Z,5.45
2023-05-19T16:24:18.507Z,7.25
2023-05-19T16:29:23.143Z,6.45
2023-05-19T16:34:53.930Z,5.90
2023-05-19T16:40:12.620Z,5.63
2023-05-19T16:45:13.566Z,5.20
2023-05-19T16:50:18.318Z,5.35
2023-05-19T16:55:20.829Z,5.38
2023-05-19T17:00:44.577Z,6.13
2023-05-19T17:11:29.405Z,5.97
2023-05-19T17:16:59.737Z,5.70
2023-05-19T17:22:03.671Z,5.00
2023-05-19T17:27:05.884Z,4.95
2023-05-19T17:32:05.470Z,5.60
2023-05-19T17:37:14.248Z,7.28
2023-05-19T17:42:22.547Z,6.15
2023-05-19T17:47:19.812Z,4.93
2023-05-19T17:52:19.426Z,4.43
2023-05-19T17:57:18.216Z,5.20
2023-05-19T18:02:22.906Z,5.47
2023-05-19T18:07:26.844Z,5.72
2023-05-19T18:12:25.864Z,6.07
2023-05-19T18:17:37.102Z,5.60
2023-05-19T18:22:35.508Z,5.40
2023-05-19T18:27:35.482Z,6.90
2023-05-19T18:38:39.149Z,6.65
2023-05-19T18:49:59.942Z,5.82
2023-05-19T18:55:01.722Z,5.72
2023-05-19T19:00:07.295Z,5.38
2023-05-19T19:05:09.782Z,5.78
2023-05-19T19:10:10.110Z,6.75
2023-05-19T19:15:12.753Z,7.68
2023-05-19T19:20:14.554Z,6.10
2023-05-19T19:25:12.558Z,6.15
2023-05-19T19:30:11.549Z,6.53
2023-05-19T19:35:10.128Z,6.47
2023-05-19T19:40:11.765Z,5.90
2023-05-19T19:45:15.527Z,5.95
2023-05-19T19:50:25.921Z,5.68
2023-05-19T19:55:25.653Z,6.80
2023-05-19T20:00:26.967Z,6.20
2023-05-19T20:05:26.926Z,6.82
2023-05-19T20:10:31.328Z,6.95
2023-05-19T20:15:31.622Z,7.60
2023-05-19T20:20:41.557Z,8.52
2023-05-19T20:25:54.802Z,8.95
2023-05-19T20:30:58.284Z,8.35
2023-05-19T20:35:56.734Z,8.60
2023-05-19T20:40:54.909Z,8.70
2023-05-19T20:45:52.535Z,7.38
2023-05-19T20:50:54.017Z,8.00
2023-05-19T20:55:52.784Z,8.30
2023-05-19T21:00:57.066Z,6.63
2023-05-19T21:05:58.491Z,7.25
2023-05-19T21:10:58.617Z,6.90
2023-05-19T21:16:00.499Z,7.05
2023-05-19T21:21:02.430Z,8.20
2023-05-19T21:26:01.214Z,8.18
2023-05-19T21:31:01.147Z,8.10
2023-05-19T21:36:03.154Z,8.70
2023-05-19T21:41:04.553Z,8.25
2023-05-19T21:46:01.979Z,7.80
2023-05-19T21:51:00.958Z,7.75
2023-05-19T21:55:59.757Z,7.47
2023-05-19T22:01:03.547Z,7.20
2023-05-19T22:06:04.991Z,6.68
2023-05-19T22:11:04.867Z,6.60
2023-05-19T22:16:16.571Z,7.03
2023-05-19T22:21:14.883Z,6.75
2023-05-19T22:26:15.747Z,6.63
2023-05-19T22:31:16.553Z,6.47
2023-05-19T22:36:16.226Z,7.57
2023-05-19T22:41:15.237Z,6.38
2023-05-19T22:46:16.593Z,7.05
2023-05-19T22:51:17.550Z,6.28
2023-05-19T22:56:16.884Z,6.82
2023-05-19T23:01:15.638Z,7.35
2023-05-19T23:06:14.172Z,8.15
2023-05-19T23:11:12.982Z,7.43
2023-05-19T23:16:18.726Z,8.15
2023-05-19T23:21:16.119Z,7.38
2023-05-19T23:26:16.456Z,8.70
2023-05-19T23:31:13.945Z,7.68
2023-05-19T23:36:15.664Z,8.82
2023-05-19T23:41:16.794Z,7.85
2023-05-19T23:46:19.715Z,7.82
2023-05-19T23:51:18.788Z,9.35
2023-05-19T23:56:16.182Z,10.07
